createdAt,value
2023-08-08T00:00:03.522Z,2.07
2023-08-08T00:02:38.863Z,1.73
2023-08-08T00:05:13.267Z,2.20
2023-08-08T00:07:46.862Z,2.03
2023-08-08T00:10:20.375Z,2.10
2023-08-08T00:12:54.384Z,1.80
2023-08-08T00:15:28.113Z,2.23
2023-08-08T00:18:01.774Z,1.90
2023-08-08T00:20:35.593Z,1.90
2023-08-08T00:23:09.671Z,1.97
2023-08-08T00:25:43.001Z,2.23
2023-08-08T00:28:16.107Z,1.90
2023-08-08T00:30:49.415Z,2.40
2023-08-08T00:33:22.980Z,2.20
2023-08-08T00:35:56.088Z,2.30
2023-08-08T00:38:30.107Z,2.33
2023-08-08T00:41:03.574Z,2.50
2023-08-08T00:43:37.589Z,2.40
2023-08-08T00:46:12.241Z,2.30
2023-08-08T00:48:46.104Z,2.17
2023-08-08T00:51:20.016Z,2.50
2023-08-08T00:53:54.647Z,2.30
2023-08-08T00:56:28.642Z,2.07
2023-08-08T00:59:02.027Z,2.10
2023-08-08T01:01:35.517Z,2.20
2023-08-08T01:04:09.820Z,2.03
2023-08-08T01:06:57.807Z,2.20
2023-08-08T01:09:38.729Z,2.70
2023-08-08T01:12:15.397Z,1.93
2023-08-08T01:14:48.702Z,2.10
2023-08-08T01:17:23.617Z,2.70
2023-08-08T01:19:56.951Z,2.90
2023-08-08T01:22:38.097Z,2.37
2023-08-08T01:25:12.993Z,2.50
2023-08-08T01:27:46.672Z,2.30
2023-08-08T01:30:19.807Z,2.20
2023-08-08T01:32:53.080Z,2.67
2023-08-08T01:35:31.391Z,2.53
2023-08-08T01:38:12.503Z,2.20
2023-08-08T01:40:48.085Z,2.60
2023-08-08T01:43:23.790Z,2.70
2023-08-08T01:45:58.131Z,2.50
2023-08-08T01:48:32.621Z,2.97
2023-08-08T01:51:05.987Z,2.30
2023-08-08T01:53:39.197Z,2.60
2023-08-08T01:56:12.875Z,2.47
2023-08-08T01:58:46.255Z,2.50
2023-08-08T02:01:20.240Z,2.40
2023-08-08T02:03:54.109Z,2.10
2023-08-08T02:06:29.315Z,2.60
2023-08-08T02:09:02.274Z,2.30
2023-08-08T02:11:36.315Z,2.17
2023-08-08T02:14:09.490Z,2.30
2023-08-08T02:16:43.629Z,2.47
2023-08-08T02:19:17.520Z,2.30
2023-08-08T02:21:51.636Z,2.65
2023-08-08T02:24:25.123Z,2.40
2023-08-08T02:26:58.310Z,2.37
2023-08-08T02:29:31.508Z,2.70
2023-08-08T02:32:06.938Z,2.80
2023-08-08T02:34:40.275Z,2.67
2023-08-08T02:37:13.535Z,2.77
2023-08-08T02:39:48.390Z,2.80
2023-08-08T02:42:22.794Z,2.83
2023-08-08T02:44:56.585Z,2.63
2023-08-08T02:47:30.044Z,2.87
2023-08-08T02:50:04.111Z,2.80
2023-08-08T02:52:38.110Z,3.33
2023-08-08T02:55:13.510Z,2.47
2023-08-08T02:57:47.321Z,2.70
2023-08-08T03:00:22.337Z,2.57
2023-08-08T03:02:57.317Z,2.10
2023-08-08T03:05:30.757Z,2.40
2023-08-08T03:08:04.206Z,2.13
2023-08-08T03:10:37.526Z,2.60
2023-08-08T03:13:11.173Z,2.20
2023-08-08T03:15:45.958Z,2.27
2023-08-08T03:18:20.380Z,1.93
2023-08-08T03:20:53.785Z,2.20
2023-08-08T03:23:26.952Z,1.83
2023-08-08T03:26:00.342Z,1.90
2023-08-08T03:28:33.724Z,2.20
2023-08-08T03:31:06.754Z,2.30
2023-08-08T03:33:40.745Z,2.00
2023-08-08T03:36:15.557Z,1.90
2023-08-08T03:38:50.089Z,2.50
2023-08-08T03:41:23.559Z,1.80
2023-08-08T03:43:57.609Z,1.97
2023-08-08T03:46:31.272Z,2.00
2023-08-08T03:49:04.634Z,1.93
2023-08-08T03:51:37.767Z,1.97
2023-08-08T03:54:12.384Z,1.83
2023-08-08T03:56:45.785Z,2.30
2023-08-08T03:59:19.440Z,2.10
2023-08-08T04:01:52.890Z,2.30
2023-08-08T04:04:26.376Z,2.30
2023-08-08T04:07:00.626Z,2.40
2023-08-08T04:09:35.465Z,2.00
2023-08-08T04:12:10.571Z,2.00
2023-08-08T04:14:43.647Z,1.90
2023-08-08T04:17:16.911Z,2.00
2023-08-08T04:19:52.056Z,2.00
2023-08-08T04:22:25.250Z,1.90
2023-08-08T04:24:59.283Z,1.80
2023-08-08T04:27:33.387Z,1.90
2023-08-08T04:30:10.376Z,1.90
2023-08-08T04:32:43.469Z,2.03
2023-08-08T04:35:16.963Z,2.20
2023-08-08T04:37:49.938Z,1.80
2023-08-08T04:40:23.511Z,2.03
2023-08-08T04:42:56.967Z,2.07
2023-08-08T04:45:30.522Z,2.17
2023-08-08T04:48:04.122Z,2.43
2023-08-08T04:50:37.741Z,2.50
2023-08-08T04:53:11.066Z,2.53
2023-08-08T04:55:44.645Z,2.43
2023-08-08T04:58:17.920Z,2.93
2023-08-08T05:00:52.330Z,3.70
2023-08-08T05:03:25.821Z,2.90
2023-08-08T05:06:01.071Z,2.77
2023-08-08T05:08:34.607Z,3.43
2023-08-08T05:11:07.885Z,3.43
2023-08-08T05:13:41.973Z,3.77
2023-08-08T05:16:15.437Z,3.90
2023-08-08T05:18:48.716Z,3.87
2023-08-08T05:21:22.986Z,4.13
2023-08-08T05:23:56.985Z,4.17
2023-08-08T05:26:30.203Z,4.37
2023-08-08T05:29:04.502Z,4.40
2023-08-08T05:31:38.402Z,4.10
2023-08-08T05:34:12.357Z,4.30
2023-08-08T05:36:46.335Z,3.87
2023-08-08T05:39:19.535Z,4.27
2023-08-08T05:41:53.627Z,4.20
2023-08-08T05:44:27.431Z,4.50
2023-08-08T05:47:01.336Z,4.70
2023-08-08T05:49:34.407Z,4.27
2023-08-08T05:52:10.079Z,4.30
2023-08-08T05:54:43.670Z,4.73
2023-08-08T05:57:16.730Z,4.60
2023-08-08T05:59:49.879Z,4.40
2023-08-08T06:02:23.000Z,4.10
2023-08-08T06:04:56.585Z,4.97
2023-08-08T06:07:30.356Z,4.40
2023-08-08T06:10:04.245Z,4.17
2023-08-08T06:12:37.641Z,4.20
2023-08-08T06:15:13.038Z,4.53
2023-08-08T06:17:45.774Z,4.30
2023-08-08T06:20:19.889Z,5.00
2023-08-08T06:22:53.466Z,4.80
2023-08-08T06:25:29.331Z,4.50
2023-08-08T06:28:03.338Z,4.73
2023-08-08T06:30:36.735Z,4.27
2023-08-08T06:33:10.883Z,5.10
2023-08-08T06:35:44.477Z,4.70
2023-08-08T06:38:17.629Z,5.00
2023-08-08T06:40:51.685Z,5.23
2023-08-08T06:43:25.038Z,4.63
2023-08-08T06:46:00.326Z,5.23
2023-08-08T06:48:33.303Z,5.73
2023-08-08T06:51:06.909Z,5.60
2023-08-08T06:53:39.986Z,5.03
2023-08-08T06:56:13.967Z,6.20
2023-08-08T06:58:48.176Z,5.63
2023-08-08T07:01:22.536Z,6.07
2023-08-08T07:03:55.991Z,5.70
2023-08-08T07:06:29.184Z,6.17
2023-08-08T07:09:02.428Z,6.57
2023-08-08T07:11:35.646Z,6.50
2023-08-08T07:14:08.977Z,6.47
2023-08-08T07:16:42.137Z,6.37
2023-08-08T07:19:15.136Z,9.20
2023-08-08T07:21:48.589Z,6.27
2023-08-08T07:24:21.750Z,6.10
2023-08-08T07:26:54.778Z,6.20
2023-08-08T07:29:29.215Z,6.03
2023-08-08T07:32:05.116Z,6.00
2023-08-08T07:34:38.573Z,6.00
2023-08-08T07:37:12.465Z,6.53
2023-08-08T07:39:45.898Z,6.10
2023-08-08T07:42:19.064Z,6.17
2023-08-08T07:44:53.039Z,6.77
2023-08-08T07:47:26.837Z,6.93
2023-08-08T07:50:01.833Z,6.83
2023-08-08T07:52:35.009Z,6.50
2023-08-08T07:55:09.953Z,6.97
2023-08-08T07:57:43.222Z,6.17
2023-08-08T08:00:19.931Z,6.53
2023-08-08T08:02:53.234Z,7.07
2023-08-08T08:05:26.899Z,6.53
2023-08-08T08:08:00.831Z,6.40
2023-08-08T08:10:34.754Z,6.43
2023-08-08T08:13:09.390Z,7.33
2023-08-08T08:15:43.461Z,6.90
2023-08-08T08:18:19.450Z,7.23
2023-08-08T08:20:54.235Z,5.83
2023-08-08T08:23:27.666Z,6.43
2023-08-08T08:26:01.345Z,6.70
2023-08-08T08:28:35.455Z,6.23
2023-08-08T08:31:10.936Z,7.03
2023-08-08T08:33:44.542Z,7.40
2023-08-08T08:36:17.879Z,7.80
2023-08-08T08:38:51.070Z,7.73
2023-08-08T08:41:27.611Z,8.10
2023-08-08T08:44:02.396Z,9.37
2023-08-08T08:46:38.461Z,7.93
2023-08-08T08:49:12.122Z,7.87
2023-08-08T08:51:45.834Z,9.20
2023-08-08T08:54:20.727Z,7.93
2023-08-08T08:56:54.626Z,8.40
2023-08-08T08:59:28.672Z,7.87
2023-08-08T09:02:03.413Z,7.73
2023-08-08T09:04:37.430Z,7.70
2023-08-08T09:07:11.959Z,8.50
2023-08-08T09:09:46.603Z,8.93
2023-08-08T09:12:21.063Z,7.77
2023-08-08T09:14:58.723Z,7.23
2023-08-08T09:20:13.281Z,7.70
2023-08-08T09:22:46.644Z,7.10
2023-08-08T09:25:20.174Z,7.10
2023-08-08T09:27:54.906Z,6.97
2023-08-08T09:30:28.643Z,6.40
2023-08-08T09:33:04.661Z,6.50
2023-08-08T09:35:40.517Z,6.70
2023-08-08T09:38:13.976Z,6.87
2023-08-08T09:40:48.093Z,2.10
2023-08-08T09:43:21.377Z,1.40
2023-08-08T09:45:56.156Z,1.27
2023-08-08T09:48:34.332Z,1.25
2023-08-08T09:51:09.075Z,1.47
2023-08-08T09:53:43.550Z,1.10
2023-08-08T09:56:19.029Z,1.20
2023-08-08T09:58:53.126Z,1.00
2023-08-08T10:01:27.777Z,1.00
2023-08-08T10:04:01.995Z,0.87
2023-08-08T10:06:35.314Z,1.20
2023-08-08T10:09:10.057Z,1.40
2023-08-08T10:11:45.586Z,1.20
2023-08-08T10:14:19.219Z,1.40
2023-08-08T10:16:52.551Z,1.13
2023-08-08T10:19:27.865Z,1.50
2023-08-08T10:22:06.264Z,1.07
2023-08-08T10:24:40.824Z,1.33
2023-08-08T10:27:14.289Z,1.17
2023-08-08T10:29:51.206Z,1.10
2023-08-08T10:32:28.758Z,1.10
2023-08-08T10:35:08.281Z,1.30
2023-08-08T10:37:42.414Z,1.20
2023-08-08T10:40:21.498Z,1.17
2023-08-08T10:42:57.189Z,1.10
2023-08-08T10:45:34.121Z,0.93
2023-08-08T10:48:15.416Z,0.90
2023-08-08T10:50:49.386Z,0.88
2023-08-08T10:53:25.178Z,1.00
2023-08-08T10:56:04.296Z,0.80
2023-08-08T10:58:43.263Z,1.10
2023-08-08T11:01:18.130Z,0.70
2023-08-08T11:03:52.432Z,1.13
2023-08-08T11:06:26.005Z,0.77
2023-08-08T11:08:59.463Z,0.90
2023-08-08T11:11:38.235Z,0.87
2023-08-08T11:14:17.214Z,0.80
2023-08-08T11:16:52.249Z,0.80
2023-08-08T11:19:26.622Z,0.73
2023-08-08T11:22:00.273Z,0.67
2023-08-08T11:24:38.618Z,0.73
2023-08-08T11:27:11.881Z,0.87
2023-08-08T11:29:51.577Z,0.70
2023-08-08T11:32:25.172Z,0.67
2023-08-08T11:34:58.850Z,0.80
2023-08-08T11:37:32.495Z,0.80
2023-08-08T11:40:07.588Z,0.70
2023-08-08T11:42:42.619Z,0.70
2023-08-08T11:45:16.888Z,0.60
2023-08-08T11:47:53.544Z,0.70
2023-08-08T11:50:29.223Z,0.53
2023-08-08T11:53:04.779Z,0.80
2023-08-08T11:55:42.705Z,0.60
2023-08-08T11:58:18.288Z,0.50
2023-08-08T12:00:51.589Z,0.60
2023-08-08T12:03:25.056Z,0.60
2023-08-08T12:05:58.458Z,0.53
2023-08-08T12:08:35.587Z,0.53
2023-08-08T12:11:09.385Z,0.73
2023-08-08T12:13:44.232Z,0.90
2023-08-08T12:16:18.543Z,0.80
2023-08-08T12:18:52.929Z,0.87
2023-08-08T12:21:27.100Z,0.70
2023-08-08T12:24:00.495Z,0.80
2023-08-08T12:26:34.725Z,0.70
2023-08-08T12:29:08.182Z,0.60
2023-08-08T12:31:41.814Z,0.80
2023-08-08T12:34:15.504Z,0.60
2023-08-08T12:36:48.702Z,0.60
2023-08-08T12:39:23.808Z,0.50
2023-08-08T12:41:57.576Z,0.60
2023-08-08T12:44:31.093Z,0.60
2023-08-08T12:47:05.580Z,0.90
2023-08-08T12:49:39.510Z,1.17
2023-08-08T12:52:12.962Z,0.77
2023-08-08T12:54:46.477Z,0.77
2023-08-08T12:57:20.212Z,1.17
2023-08-08T12:59:53.834Z,0.50
2023-08-08T13:02:27.433Z,0.63
2023-08-08T13:05:02.187Z,0.60
2023-08-08T13:07:35.696Z,0.57
2023-08-08T13:10:11.913Z,0.50
2023-08-08T13:12:45.057Z,0.60
2023-08-08T13:15:18.877Z,0.70
2023-08-08T13:17:52.139Z,0.70
2023-08-08T13:20:25.321Z,0.63
2023-08-08T13:22:58.472Z,0.87
2023-08-08T13:25:32.590Z,0.90
2023-08-08T13:28:06.531Z,0.80
2023-08-08T13:30:40.129Z,0.50
2023-08-08T13:33:13.245Z,9.67
2023-08-08T13:35:46.209Z,15.80
2023-08-08T13:38:19.558Z,7.70
2023-08-08T13:40:53.096Z,2.07
2023-08-08T13:43:26.397Z,0.80
2023-08-08T13:46:01.505Z,1.13
2023-08-08T13:48:35.107Z,1.17
2023-08-08T13:51:09.040Z,0.90
2023-08-08T13:53:42.234Z,1.10
2023-08-08T13:56:16.040Z,0.63
2023-08-08T13:58:49.353Z,0.80
2023-08-08T14:01:22.868Z,0.60
2023-08-08T14:03:57.161Z,0.80
2023-08-08T14:06:31.944Z,0.63
2023-08-08T14:09:05.889Z,0.70
2023-08-08T14:11:40.014Z,0.57
2023-08-08T14:14:14.252Z,0.67
2023-08-08T14:16:47.462Z,0.73
2023-08-08T14:19:21.006Z,0.50
2023-08-08T14:21:55.241Z,0.63
2023-08-08T14:24:28.716Z,0.60
2023-08-08T14:27:02.522Z,0.70
2023-08-08T14:29:35.713Z,0.60
2023-08-08T14:32:12.074Z,0.70
2023-08-08T14:34:45.385Z,0.70
2023-08-08T14:37:18.760Z,0.67
2023-08-08T14:39:52.257Z,0.63
2023-08-08T14:42:25.351Z,0.70
2023-08-08T14:44:59.157Z,0.70
2023-08-08T14:47:32.855Z,0.77
2023-08-08T14:50:07.072Z,0.60
2023-08-08T14:52:40.158Z,0.60
2023-08-08T14:55:13.949Z,0.80
2023-08-08T14:57:47.360Z,0.63
2023-08-08T15:00:21.064Z,0.70
2023-08-08T15:02:54.390Z,0.70
2023-08-08T15:05:27.945Z,0.80
2023-08-08T15:08:01.709Z,0.60
2023-08-08T15:10:36.106Z,0.70
2023-08-08T15:13:09.454Z,0.80
2023-08-08T15:15:43.038Z,0.70
2023-08-08T15:18:15.972Z,0.67
2023-08-08T15:20:50.165Z,0.80
2023-08-08T15:23:23.989Z,1.00
2023-08-08T15:25:59.750Z,0.90
2023-08-08T15:28:33.354Z,0.70
2023-08-08T15:31:07.044Z,0.70
2023-08-08T15:33:40.758Z,0.80
2023-08-08T15:36:14.676Z,1.00
2023-08-08T15:38:47.623Z,0.70
2023-08-08T15:41:21.512Z,0.80
2023-08-08T15:43:54.751Z,1.00
2023-08-08T15:46:28.248Z,0.80
2023-08-08T15:49:01.543Z,0.77
2023-08-08T15:51:34.954Z,0.90
2023-08-08T15:54:09.791Z,1.00
2023-08-08T15:56:43.845Z,1.00
2023-08-08T15:59:18.000Z,1.10
2023-08-08T16:01:51.262Z,0.93
2023-08-08T16:04:24.510Z,1.10
2023-08-08T16:06:58.051Z,1.13
2023-08-08T16:09:32.402Z,0.90
2023-08-08T16:12:06.674Z,0.97
2023-08-08T16:14:40.334Z,0.97
2023-08-08T16:17:14.261Z,0.80
2023-08-08T16:19:47.662Z,0.80
2023-08-08T16:22:21.287Z,0.93
2023-08-08T16:24:55.092Z,0.80
2023-08-08T16:27:28.807Z,0.83
2023-08-08T16:30:03.097Z,1.20
2023-08-08T16:32:36.926Z,1.30
2023-08-08T16:35:11.977Z,0.87
2023-08-08T16:37:45.456Z,0.70
2023-08-08T16:40:18.784Z,0.93
2023-08-08T16:42:52.572Z,0.90
2023-08-08T16:45:26.389Z,0.97
2023-08-08T16:47:59.805Z,0.80
2023-08-08T16:50:33.448Z,0.90
2023-08-08T16:53:07.785Z,0.80
2023-08-08T16:55:43.247Z,0.90
2023-08-08T16:58:17.558Z,1.00
2023-08-08T17:00:54.865Z,1.20
2023-08-08T17:03:28.183Z,1.10
2023-08-08T17:06:02.519Z,1.20
2023-08-08T17:08:36.122Z,0.97
2023-08-08T17:11:09.982Z,0.90
2023-08-08T17:13:44.599Z,1.10
2023-08-08T17:16:21.410Z,1.20
2023-08-08T17:18:55.233Z,1.00
2023-08-08T17:21:29.378Z,0.93
2023-08-08T17:24:03.719Z,1.20
2023-08-08T17:26:38.716Z,1.40
2023-08-08T17:29:12.501Z,1.30
2023-08-08T17:31:46.034Z,1.07
2023-08-08T17:34:19.297Z,1.20
2023-08-08T17:36:52.693Z,1.00
2023-08-08T17:39:26.636Z,1.17
2023-08-08T17:42:00.869Z,1.03
2023-08-08T17:44:36.518Z,0.90
2023-08-08T17:47:11.163Z,1.10
2023-08-08T17:49:45.393Z,1.30
2023-08-08T17:52:19.825Z,1.60
2023-08-08T17:54:54.234Z,1.57
2023-08-08T17:57:27.960Z,1.30
2023-08-08T18:00:02.668Z,1.40
2023-08-08T18:02:42.714Z,1.30
2023-08-08T18:05:16.619Z,1.43
2023-08-08T18:07:50.630Z,1.30
2023-08-08T18:10:25.051Z,1.70
2023-08-08T18:12:58.235Z,1.47
2023-08-08T18:15:31.706Z,1.10
2023-08-08T18:18:06.499Z,1.20
2023-08-08T18:20:40.982Z,1.20
2023-08-08T18:23:14.693Z,1.53
2023-08-08T18:25:47.885Z,1.50
2023-08-08T18:28:22.497Z,1.07
2023-08-08T18:30:56.591Z,1.50
2023-08-08T18:33:31.024Z,1.60
2023-08-08T18:36:05.564Z,1.60
2023-08-08T18:38:44.038Z,1.30
2023-08-08T18:41:18.179Z,1.30
2023-08-08T18:43:51.782Z,1.30
2023-08-08T18:46:25.813Z,1.20
2023-08-08T18:48:59.329Z,1.47
2023-08-08T18:51:34.325Z,1.67
2023-08-08T18:54:09.840Z,1.40
2023-08-08T18:56:43.385Z,1.70
2023-08-08T18:59:17.331Z,1.23
2023-08-08T19:01:54.244Z,1.50
2023-08-08T19:04:27.597Z,1.43
2023-08-08T19:07:01.302Z,1.50
2023-08-08T19:09:34.799Z,1.30
2023-08-08T19:12:10.305Z,1.23
2023-08-08T19:14:43.828Z,1.50
2023-08-08T19:17:18.000Z,2.00
2023-08-08T19:19:51.691Z,1.80
2023-08-08T19:22:28.328Z,1.73
2023-08-08T19:25:02.470Z,2.10
2023-08-08T19:27:36.510Z,2.40
2023-08-08T19:30:16.772Z,2.80
2023-08-08T19:32:50.883Z,2.57
2023-08-08T19:35:24.830Z,2.60
2023-08-08T19:37:59.199Z,2.70
2023-08-08T19:40:34.915Z,3.00
2023-08-08T19:43:08.590Z,3.00
2023-08-08T19:45:42.680Z,3.33
2023-08-08T19:48:17.816Z,2.90
2023-08-08T19:50:51.424Z,3.20
2023-08-08T19:53:25.706Z,3.60
2023-08-08T19:56:01.808Z,4.00
2023-08-08T19:58:36.618Z,4.37
2023-08-08T20:01:11.639Z,3.70
2023-08-08T20:03:45.052Z,3.90
2023-08-08T20:06:19.037Z,3.47
2023-08-08T20:08:56.336Z,3.80
2023-08-08T20:11:30.376Z,3.50
2023-08-08T20:14:07.087Z,3.67
2023-08-08T20:16:40.770Z,3.27
2023-08-08T20:19:14.077Z,3.67
2023-08-08T20:21:48.010Z,3.60
2023-08-08T20:24:22.222Z,3.53
2023-08-08T20:26:55.677Z,3.30
2023-08-08T20:29:30.139Z,3.33
2023-08-08T20:32:04.030Z,3.00
2023-08-08T20:34:37.667Z,3.00
2023-08-08T20:37:12.269Z,3.50
2023-08-08T20:39:46.695Z,2.67
2023-08-08T20:42:20.652Z,2.97
2023-08-08T20:44:55.260Z,3.27
2023-08-08T20:47:28.691Z,3.00
2023-08-08T20:50:02.528Z,3.97
2023-08-08T20:52:38.874Z,3.73
2023-08-08T20:55:13.824Z,3.70
2023-08-08T20:57:46.964Z,3.40
2023-08-08T21:00:22.679Z,3.37
2023-08-08T21:02:56.948Z,3.07
2023-08-08T21:05:30.754Z,2.93
2023-08-08T21:08:03.956Z,3.53
2023-08-08T21:10:38.089Z,3.10
2023-08-08T21:13:11.888Z,3.00
2023-08-08T21:15:46.301Z,2.70
2023-08-08T21:18:20.003Z,3.30
2023-08-08T21:20:53.174Z,2.93
2023-08-08T21:23:26.493Z,2.97
2023-08-08T21:26:00.298Z,3.23
2023-08-08T21:28:34.771Z,2.93
2023-08-08T21:31:07.694Z,2.90
2023-08-08T21:33:40.673Z,2.83
2023-08-08T21:36:14.908Z,2.87
2023-08-08T21:38:49.316Z,2.90
2023-08-08T21:41:23.043Z,2.97
2023-08-08T21:43:57.609Z,2.90
2023-08-08T21:46:31.781Z,3.70
2023-08-08T21:49:05.403Z,2.70
2023-08-08T21:51:38.124Z,2.60
2023-08-08T21:54:12.156Z,2.63
2023-08-08T21:56:47.189Z,2.93
2023-08-08T21:59:21.065Z,2.70
2023-08-08T22:01:54.621Z,2.50
2023-08-08T22:04:27.830Z,3.10
2023-08-08T22:07:02.296Z,2.87
2023-08-08T22:09:36.869Z,2.60
2023-08-08T22:12:11.506Z,2.77
2023-08-08T22:14:44.938Z,2.60
2023-08-08T22:17:19.001Z,2.87
2023-08-08T22:19:52.211Z,2.87
2023-08-08T22:22:26.257Z,2.87
2023-08-08T22:25:00.254Z,2.80
2023-08-08T22:27:33.219Z,2.73
2023-08-08T22:30:07.767Z,2.60
2023-08-08T22:32:41.060Z,2.50
2023-08-08T22:35:15.476Z,2.27
2023-08-08T22:37:49.114Z,2.60
2023-08-08T22:40:23.128Z,2.83
2023-08-08T22:42:56.466Z,2.50
2023-08-08T22:45:30.740Z,2.80
2023-08-08T22:48:04.293Z,2.77
2023-08-08T22:50:42.246Z,2.60
2023-08-08T22:53:16.012Z,2.70
2023-08-08T22:55:50.017Z,2.80
2023-08-08T22:58:23.934Z,2.37
2023-08-08T23:00:57.843Z,2.73
2023-08-08T23:03:32.091Z,3.90
2023-08-08T23:06:05.445Z,2.53
2023-08-08T23:08:39.869Z,2.50
2023-08-08T23:11:14.071Z,2.27
2023-08-08T23:13:47.886Z,2.87
2023-08-08T23:16:21.014Z,3.00
2023-08-08T23:18:53.674Z,2.60
2023-08-08T23:33:30.839Z,2.30
2023-08-08T23:36:04.411Z,2.50
2023-08-08T23:38:38.202Z,2.67
2023-08-08T23:41:11.638Z,2.57
2023-08-08T23:43:44.821Z,2.43
2023-08-08T23:46:18.824Z,3.13
2023-08-08T23:48:52.941Z,2.53
2023-08-08T23:51:26.326Z,2.27
2023-08-08T23:53:59.592Z,2.20
2023-08-08T23:56:32.786Z,2.20
2023-08-08T23:59:06.184Z,2.13
